Time;durP1;ratioP1;P1;durP2;ratioP2;P2;SDS_P1;SDS_P2;PMS_P1;PMS_P2;Temp;Humidity;BMP_temperature;BMP_pressure;BME280_temperature;BME280_humidity;BME280_pressure;Samples;Min_cycle;Max_cycle;Signal;HPM_P1;HPM_P2
2021/06/01 00:00:14;;;;;;;1.80;1.80;;;;;;;13.37;52.94;102179.50;6314022;28;20183;-71
2021/06/01 00:03:19;;;;;;;1.85;1.60;;;;;;;13.01;52.96;102108.47;6312630;28;20387;-71
2021/06/01 00:06:24;;;;;;;1.52;1.52;;;;;;;13.38;53.13;102175.72;6313391;28;20188;-71
2021/06/01 00:09:28;;;;;;;1.92;1.83;;;;;;;13.45;53.09;102175.75;6313256;28;20184;-71
2021/06/01 00:12:33;;;;;;;1.70;1.70;;;;;;;13.18;54.06;102174.75;6312292;28;20455;-71
2021/06/01 00:15:37;;;;;;;2.00;1.98;;;;;;;13.02;54.64;102155.84;6311372;28;20476;-72
2021/06/01 00:18:43;;;;;;;1.60;1.60;;;;;;;13.24;54.20;102168.47;6312123;28;20206;-71
2021/06/01 00:21:47;;;;;;;1.98;1.70;;;;;;;13.36;54.18;102171.47;6312185;28;20215;-71
2021/06/01 00:24:51;;;;;;;1.95;1.95;;;;;;;13.13;55.14;102182.75;6312928;28;20207;-72
2021/06/01 00:27:56;;;;;;;1.67;1.67;;;;;;;13.25;54.29;102175.63;6312062;28;20217;-71
2021/06/01 00:30:59;;;;;;;1.80;1.70;;;;;;;13.22;54.14;102181.53;6310613;28;20242;-71
2021/06/01 00:34:06;;;;;;;1.60;1.60;;;;;;;12.97;55.32;102183.00;6311958;28;20414;-71
2021/06/01 00:37:10;;;;;;;1.88;1.77;;;;;;;12.92;55.66;102182.75;6312564;28;20282;-71
2021/06/01 00:40:14;;;;;;;2.95;1.83;;;;;;;12.85;55.67;102184.63;6312785;28;20187;-71
2021/06/01 00:43:19;;;;;;;1.70;1.70;;;;;;;12.79;55.76;102179.97;6294274;28;20230;-71
2021/06/01 00:46:23;;;;;;;1.90;1.60;;;;;;;12.86;55.65;102180.84;6312799;28;20191;-71
2021/06/01 00:49:28;;;;;;;2.88;1.50;;;;;;;12.90;55.96;102182.13;6311497;28;20497;-72
2021/06/01 00:52:31;;;;;;;1.55;1.45;;;;;;;12.64;55.79;102181.91;6312819;28;20215;-71
2021/06/01 00:55:36;;;;;;;1.73;1.60;;;;;;;12.66;55.68;102185.31;6293698;28;20203;-72
2021/06/01 00:58:41;;;;;;;1.75;1.70;;;;;;;12.60;56.32;102191.59;6312423;28;20184;-71
2021/06/01 01:01:45;;;;;;;1.52;1.52;;;;;;;12.57;56.07;102188.19;6312388;28;20221;-71
2021/06/01 01:04:48;;;;;;;1.52;1.52;;;;;;;12.64;56.08;102184.66;6311178;28;20249;-71
2021/06/01 01:08:05;;;;;;;1.50;1.50;;;;;;;12.55;56.06;102162.91;6311238;28;20183;-71
2021/06/01 01:11:12;;;;;;;4.68;1.63;;;;;;;12.55;56.23;102184.81;6311171;28;20490;-71
2021/06/01 01:14:22;;;;;;;1.65;1.55;;;;;;;12.61;56.10;102193.28;6312495;28;20192;-71
2021/06/01 01:17:34;;;;;;;1.58;1.58;;;;;;;12.55;56.37;102190.28;6311192;28;20199;-71
2021/06/01 01:20:44;;;;;;;1.60;1.60;;;;;;;12.42;56.80;102183.84;6311958;28;20187;-71
2021/06/01 01:23:53;;;;;;;1.50;1.50;;;;;;;12.42;56.77;102184.69;6312362;28;20251;-71
2021/06/01 01:27:06;;;;;;;1.60;1.45;;;;;;;12.27;57.65;102194.88;6312057;28;20229;-71
2021/06/01 01:30:15;;;;;;;1.40;1.40;;;;;;;12.26;57.39;102190.44;6311243;28;20267;-71
2021/06/01 01:33:24;;;;;;;3.05;1.50;;;;;;;12.20;57.56;102191.19;6312292;28;20184;-72
2021/06/01 01:36:29;;;;;;;1.40;1.40;;;;;;;12.19;57.91;102189.53;6311748;28;20188;-71
2021/06/01 01:39:40;;;;;;;2.38;1.70;;;;;;;12.16;57.96;102195.38;6311167;28;20222;-71
2021/06/01 01:42:50;;;;;;;1.70;1.60;;;;;;;12.14;58.03;102193.88;6310776;28;20471;-71
2021/06/01 01:46:06;;;;;;;1.73;1.65;;;;;;;12.14;58.22;102192.00;6311583;28;20246;-71
2021/06/01 01:49:15;;;;;;;1.75;1.60;;;;;;;12.09;58.20;102189.00;6310765;28;20183;-71
2021/06/01 01:52:19;;;;;;;1.75;1.73;;;;;;;12.04;58.43;102201.56;6311694;28;20215;-73
2021/06/01 01:55:23;;;;;;;1.65;1.65;;;;;;;11.74;59.55;102200.78;6311711;28;20209;-71
2021/06/01 01:58:27;;;;;;;1.33;1.33;;;;;;;11.92;58.76;102209.41;6310537;28;20542;-71
2021/06/01 02:01:32;;;;;;;1.40;1.40;;;;;;;11.88;59.27;102208.13;6311476;28;20183;-72
2021/06/01 02:04:38;;;;;;;1.42;1.40;;;;;;;11.78;59.05;102207.56;6309247;28;20296;-71
2021/06/01 02:07:42;;;;;;;1.20;1.20;;;;;;;11.68;59.39;102201.53;6311997;28;20187;-71
2021/06/01 02:10:47;;;;;;;2.47;1.60;;;;;;;11.56;60.64;102203.88;6311143;28;20196;-71
2021/06/01 02:13:54;;;;;;;1.20;1.20;;;;;;;11.63;60.15;102209.47;6311820;28;20195;-71
2021/06/01 02:16:58;;;;;;;1.58;1.58;;;;;;;11.63;60.23;102212.19;6311066;28;20222;-70
2021/06/01 02:20:06;;;;;;;1.75;1.65;;;;;;;11.59;60.69;102213.59;6310285;28;20492;-72
2021/06/01 02:26:44;;;;;;;1.60;1.50;;;;;;;11.68;60.42;102228.88;6311642;28;20211;-72
2021/06/01 02:30:00;;;;;;;1.40;1.40;;;;;;;11.58;60.83;102231.06;6311303;28;20267;-72
2021/06/01 02:33:05;;;;;;;3.75;1.60;;;;;;;11.35;61.67;102239.31;6310214;28;20224;-72
2021/06/01 02:36:15;;;;;;;1.40;1.40;;;;;;;11.35;61.90;102227.56;6311392;28;20188;-72
2021/06/01 02:39:21;;;;;;;1.58;1.52;;;;;;;11.31;62.60;102233.41;6314477;28;20215;-72
2021/06/01 02:42:25;;;;;;;1.58;1.50;;;;;;;11.27;62.84;102232.06;6315536;28;20237;-72
2021/06/01 02:45:29;;;;;;;1.80;1.70;;;;;;;11.37;62.73;102253.66;6315176;28;20253;-72
2021/06/01 02:48:33;;;;;;;1.90;1.55;;;;;;;11.30;62.86;102239.91;6315229;28;20260;-72
2021/06/01 02:51:38;;;;;;;1.85;1.73;;;;;;;11.39;62.87;102231.59;6315533;28;20183;-72
2021/06/01 02:54:42;;;;;;;1.30;1.30;;;;;;;11.42;63.14;102240.28;6314289;28;20187;-71
2021/06/01 02:57:47;;;;;;;1.80;1.50;;;;;;;11.16;63.94;102235.28;6315272;28;20184;-71
2021/06/01 03:00:51;;;;;;;2.63;1.63;;;;;;;11.36;63.96;102246.50;6314533;28;20409;-72
2021/06/01 03:03:55;;;;;;;1.75;1.65;;;;;;;11.43;63.43;102235.69;6315400;28;20215;-71
2021/06/01 03:07:01;;;;;;;1.58;1.48;;;;;;;11.33;63.86;102247.72;6315284;28;20211;-71
2021/06/01 03:10:07;;;;;;;1.70;1.60;;;;;;;11.35;64.34;102243.97;6314977;28;20251;-71
2021/06/01 03:13:13;;;;;;;1.60;1.60;;;;;;;11.33;64.35;102247.72;6313913;28;20479;-71
2021/06/01 03:16:18;;;;;;;1.70;1.60;;;;;;;11.20;64.35;102220.19;6314336;28;20187;-71
2021/06/01 03:19:22;;;;;;;3.03;1.38;;;;;;;11.23;64.86;102258.09;6314984;28;20254;-71
2021/06/01 03:22:27;;;;;;;1.38;1.38;;;;;;;11.16;65.66;102261.75;6313664;28;20493;-71
2021/06/01 03:25:31;;;;;;;1.30;1.30;;;;;;;11.20;64.96;102263.91;6314882;28;20270;-71
2021/06/01 03:28:35;;;;;;;1.38;1.38;;;;;;;11.22;65.11;102259.09;6314117;28;20215;-71
2021/06/01 03:31:39;;;;;;;1.52;1.42;;;;;;;11.29;65.42;102262.81;6313784;28;20205;-71
2021/06/01 03:34:43;;;;;;;1.83;1.75;;;;;;;11.36;64.75;102256.56;6314788;28;20251;-71
2021/06/01 03:37:48;;;;;;;1.73;1.40;;;;;;;11.28;65.26;102255.63;6313417;28;20192;-71
2021/06/01 03:40:52;;;;;;;4.65;1.42;;;;;;;11.36;65.14;102253.84;6313170;28;20251;-71
2021/06/01 03:43:56;;;;;;;1.40;1.40;;;;;;;11.42;65.01;102243.03;6296255;28;20241;-71
2021/06/01 03:46:59;;;;;;;1.45;1.45;;;;;;;11.45;64.94;102250.00;6313325;28;20274;-71
2021/06/01 03:50:04;;;;;;;1.42;1.42;;;;;;;11.46;65.14;102246.22;6313940;28;20253;-72
2021/06/01 03:53:10;;;;;;;1.50;1.40;;;;;;;11.51;65.18;102254.69;6313285;28;20190;-71
2021/06/01 03:56:14;;;;;;;1.60;1.55;;;;;;;11.37;64.65;102231.81;6313758;28;20192;-71
2021/06/01 03:59:18;;;;;;;1.70;1.30;;;;;;;11.37;65.42;102241.88;6313758;28;20189;-71
2021/06/01 04:02:21;;;;;;;1.38;1.38;;;;;;;11.30;65.65;102252.72;6313974;28;20250;-72
2021/06/01 04:05:25;;;;;;;2.60;1.40;;;;;;;11.42;65.80;102258.56;6312887;28;20218;-71
2021/06/01 04:08:30;;;;;;;1.55;1.50;;;;;;;11.47;66.10;102253.38;6312937;28;20191;-71
2021/06/01 04:11:33;;;;;;;1.05;1.05;;;;;;;11.69;65.05;102257.91;6313828;28;20199;-71
2021/06/01 04:14:38;;;;;;;1.40;1.40;;;;;;;11.67;65.03;102252.63;6313692;28;20194;-71
2021/06/01 04:17:42;;;;;;;1.42;1.42;;;;;;;11.63;65.18;102253.19;6312351;28;20335;-71
2021/06/01 04:20:46;;;;;;;1.40;1.30;;;;;;;11.69;64.92;102241.50;6313422;28;20195;-71
2021/06/01 04:23:51;;;;;;;1.70;1.60;;;;;;;11.78;65.03;102251.31;6313441;28;20215;-71
2021/06/01 04:26:55;;;;;;;1.20;1.20;;;;;;;11.62;65.59;102251.50;6312997;28;20215;-71
2021/06/01 04:29:59;;;;;;;1.50;1.40;;;;;;;11.76;65.19;102256.16;6312961;28;20312;-71
2021/06/01 04:33:03;;;;;;;1.20;1.20;;;;;;;11.85;65.19;102263.19;6313114;28;20188;-71
2021/06/01 04:36:07;;;;;;;1.48;1.40;;;;;;;11.89;64.67;102270.81;6311529;28;20500;-71
2021/06/01 04:39:12;;;;;;;1.65;1.50;;;;;;;11.75;64.99;102273.56;6312020;28;20183;-72
2021/06/01 04:42:16;;;;;;;1.38;1.38;;;;;;;11.83;64.20;102281.69;6312684;28;20184;-71
2021/06/01 04:45:20;;;;;;;3.45;1.50;;;;;;;11.71;65.02;102275.00;6311249;28;20553;-71
2021/06/01 04:48:23;;;;;;;;;;;;;;;11.86;65.00;102264.91;6313031;28;20183;-71
2021/06/01 04:51:28;;;;;;;6.00;1.73;;;;;;;11.81;65.49;102250.94;6312278;28;20560;-71
2021/06/01 04:54:34;;;;;;;2.63;1.60;;;;;;;11.96;64.40;102256.38;6311404;28;20251;-70
2021/06/01 04:57:37;;;;;;;1.20;1.20;;;;;;;12.09;64.76;102282.03;6312572;28;20254;-71
2021/06/01 05:00:41;;;;;;;1.45;1.30;;;;;;;12.18;64.14;102290.94;6311745;28;20183;-71
2021/06/01 05:03:45;;;;;;;4.82;1.20;;;;;;;12.29;64.07;102294.03;6311196;28;20459;-71
2021/06/01 05:06:48;;;;;;;2.10;1.30;;;;;;;12.26;64.35;102294.41;6312001;28;20218;-71
2021/06/01 05:09:59;;;;;;;1.38;1.23;;;;;;;12.42;64.04;102288.72;6311024;28;20184;-71
2021/06/01 05:13:03;;;;;;;1.63;1.52;;;;;;;12.62;63.81;102283.44;6311524;28;20183;-71
2021/06/01 05:16:07;;;;;;;1.38;1.33;;;;;;;12.70;63.43;102290.66;6311875;28;20327;-71
2021/06/01 05:19:11;;;;;;;1.50;1.50;;;;;;;12.63;64.63;102295.25;6309803;28;20199;-71
2021/06/01 05:22:16;;;;;;;3.13;1.50;;;;;;;12.78;63.69;102296.03;6311758;28;20183;-71
2021/06/01 05:25:21;;;;;;;1.95;1.20;;;;;;;12.89;63.65;102295.50;6311052;28;20250;-71
2021/06/01 05:28:25;;;;;;;1.38;1.30;;;;;;;12.65;63.42;102272.09;6311548;28;20262;-71
2021/06/01 05:31:40;;;;;;;4.63;1.38;;;;;;;12.68;63.32;102309.19;6311925;28;20254;-71
2021/06/01 05:34:47;;;;;;;1.40;1.30;;;;;;;12.78;63.21;102296.03;6311774;28;20267;-71
2021/06/01 05:37:51;;;;;;;1.48;1.30;;;;;;;12.94;63.10;102299.31;6311288;28;20188;-71
2021/06/01 05:40:58;;;;;;;3.13;1.50;;;;;;;13.01;63.17;102304.88;6311290;28;20183;-71
2021/06/01 11:07:44;;;;;;;5.68;2.30;;;;;;;15.28;54.91;102500.44;6384785;27;20274;-74
2021/06/01 11:10:48;;;;;;;2.20;2.10;;;;;;;15.28;54.76;102499.63;6383855;28;20194;-73
2021/06/01 11:13:52;;;;;;;1.98;1.98;;;;;;;15.43;54.85;102503.03;6384305;28;20250;-72
2021/06/01 11:16:58;;;;;;;3.92;2.45;;;;;;;15.57;54.53;102510.28;6383343;28;20231;-72
2021/06/01 11:20:10;;;;;;;2.17;2.00;;;;;;;15.62;54.22;102504.97;6384383;28;20219;-73
2021/06/01 11:23:23;;;;;;;1.85;1.85;;;;;;;15.65;54.04;102513.69;6383616;28;20284;-73
2021/06/01 11:33:25;;;;;;;4.00;2.20;;;;;;;15.64;52.46;102513.88;6384215;28;20188;-72
2021/06/01 11:36:37;;;;;;;1.73;1.73;;;;;;;15.70;52.82;102518.53;6384183;27;20237;-72
2021/06/01 11:39:54;;;;;;;1.90;1.90;;;;;;;15.70;53.19;102514.94;6382687;27;20491;-72
2021/06/01 11:43:06;;;;;;;3.13;2.22;;;;;;;15.68;52.25;102523.41;6383904;28;20182;-72
2021/06/01 11:46:23;;;;;;;2.33;2.17;;;;;;;15.62;52.02;102524.25;6383307;28;20193;-73
2021/06/01 11:52:56;;;;;;;2.22;2.10;;;;;;;15.67;51.60;102532.72;6342234;28;20255;-73
2021/06/01 11:56:04;;;;;;;1.90;1.90;;;;;;;15.79;51.31;102531.06;6383336;28;20210;-73
2021/06/01 12:02:42;;;;;;;4.80;2.00;;;;;;;15.82;51.13;102525.09;6382714;27;20261;-73
2021/06/01 12:12:42;;;;;;;1.80;1.80;;;;;;;16.12;51.20;102520.88;6382293;27;20254;-72
2021/06/01 12:19:10;;;;;;;1.88;1.80;;;;;;;16.06;50.95;102532.75;6365267;28;20218;-72
2021/06/01 12:22:14;;;;;;;3.60;2.00;;;;;;;16.13;51.43;102533.56;6366034;28;20183;-72
2021/06/01 12:25:19;;;;;;;1.85;1.85;;;;;;;16.19;51.98;102549.25;6364820;28;20219;-73
2021/06/01 12:31:47;;;;;;;2.10;2.10;;;;;;;15.93;51.95;102553.91;6365084;28;20267;-73
2021/06/01 12:34:57;;;;;;;2.08;1.98;;;;;;;15.86;50.95;102553.91;6364460;28;20218;-74
2021/06/01 12:41:46;;;;;;;1.95;1.80;;;;;;;15.90;51.39;102544.16;6365616;28;20214;-73
2021/06/01 12:44:52;;;;;;;2.30;2.20;;;;;;;15.99;51.05;102547.56;6364288;28;20182;-73
2021/06/01 13:08:56;;;;;;;4.00;1.98;;;;;;;16.26;51.08;102552.00;6363831;28;20229;-73
2021/06/01 13:12:13;;;;;;;2.03;2.03;;;;;;;16.32;51.19;102558.56;6365108;28;20282;-73
2021/06/01 13:19:17;;;;;;;2.05;1.95;;;;;;;16.46;51.26;102549.25;6364277;28;20189;-72
2021/06/01 13:36:34;;;;;;;2.42;2.28;;;;;;;17.23;49.28;102561.06;6362778;28;20394;-73
2021/06/01 13:39:42;;;;;;;;;;;;;;;17.47;48.73;102567.75;6363384;28;20221;-73
2021/06/01 13:46:13;;;;;;;;;;;;;;;17.34;49.12;102574.19;6364386;28;19961;-73
2021/06/01 13:49:19;;;;;;;;;;;;;;;17.28;49.33;102572.28;6363468;28;20024;-73
2021/06/01 13:52:53;;;;;;;;;;;;;;;17.79;48.39;102574.19;6364064;28;19999;-72
2021/06/01 13:55:59;;;;;;;2.88;2.10;;;;;;;17.83;47.84;102572.66;6363179;28;20223;-73
2021/06/01 13:59:08;;;;;;;2.55;2.13;;;;;;;17.22;49.09;102584.22;6363495;28;20186;-73
2021/06/01 14:02:39;;;;;;;2.00;1.90;;;;;;;17.59;48.76;102574.28;6363106;28;20189;-73
2021/06/01 14:36:18;;;;;;;2.00;1.90;;;;;;;16.47;51.30;102584.81;6387494;27;20213;-72
2021/06/01 15:10:25;;;;;;;;;;;;;;;16.83;50.75;102598.16;6388637;28;19922;-71
2021/06/01 15:50:41;;;;;;;;;;;;;;;16.81;49.78;102616.81;6369596;28;19915;-72
2021/06/01 15:53:52;;;;;;;;;;;;;;;16.82;49.82;102615.72;6390645;27;19915;-72
2021/06/01 16:13:48;;;;;;;;;;;;;;;16.50;50.99;102622.13;6392596;27;19935;-71
2021/06/01 16:23:42;;;;;;;;;;;;;;;16.80;49.13;102615.09;6391460;27;20136;-72
2021/06/01 16:30:16;;;;;;;;;;;;;;;16.80;48.84;102623.38;6392006;27;19979;-71
2021/06/01 16:33:30;;;;;;;;;;;;;;;16.97;47.80;102635.66;6391197;27;20139;-72
2021/06/01 16:43:43;;;;;;;;;;;;;;;16.79;48.59;102627.22;6373391;27;19915;-71
2021/06/01 17:03:44;;;;;;;;;;;;;;;16.32;49.10;102649.47;6390227;27;19915;-72
2021/06/01 17:06:55;;;;;;;;;;;;;;;16.25;49.61;102647.53;6390984;27;19972;-74
2021/06/01 17:13:24;;;;;;;;;;;;;;;16.19;50.01;102648.41;6390223;27;19952;-71
2021/06/01 17:16:33;;;;;;;;;;;;;;;16.10;50.40;102649.66;6390110;27;19950;-72
2021/06/01 17:23:34;;;;;;;;;;;;;;;16.07;50.48;102655.59;6365599;27;19960;-72
2021/06/01 17:36:48;;;;;;;;;;;;;;;16.20;49.53;102666.59;6388879;27;19915;-72
2021/06/01 17:39:53;;;;;;;;;;;;;;;16.14;48.93;102672.13;6389256;27;19921;-72
2021/06/01 17:43:01;;;;;;;;;;;;;;;16.22;49.48;102670.03;6390251;27;19915;-73
2021/06/01 17:46:06;;;;;;;;;;;;;;;16.05;49.28;102673.38;6389152;27;20034;-73
2021/06/01 17:49:12;;;;;;;;;;;;;;;16.01;49.83;102683.09;6389993;27;19922;-74
2021/06/01 17:52:21;;;;;;;;;;;;;;;16.10;49.83;102681.88;6389976;27;19922;-72
2021/06/01 17:55:26;;;;;;;;;;;;;;;16.15;50.35;102685.66;6389924;27;19922;-73
2021/06/01 17:58:30;;;;;;;;;;;;;;;16.19;49.57;102681.44;6389607;27;19915;-73
2021/06/01 18:01:35;;;;;;;;;;;;;;;16.16;49.29;102681.00;6389773;27;20003;-73
2021/06/01 18:04:38;;;;;;;;;;;;;;;16.10;49.96;102693.72;6386196;27;19960;-73
2021/06/01 18:07:59;;;;;;;;;;;;;;;16.05;49.66;102690.72;6362735;28;19977;-72
2021/06/01 18:35:22;;;;;;;3.72;3.63;;;;;;;15.57;52.75;102708.38;6361788;28;20218;-72
2021/06/01 18:42:03;;;;;;;4.28;3.97;;;;;;;15.49;52.98;102705.78;6328893;28;20285;-73
2021/06/01 19:02:07;;;;;;;11.88;10.65;;;;;;;15.33;53.84;102747.38;6361251;28;20437;-71
2021/06/01 19:22:57;;;;;;;2.40;2.20;;;;;;;14.99;54.80;102771.03;6387872;28;20181;-72
2021/06/01 19:43:39;;;;;;;2.40;2.30;;;;;;;14.89;55.48;102792.50;6391552;27;20553;-71
2021/06/01 19:50:09;;;;;;;;;;;;;;;14.74;56.34;102799.16;6391942;27;20134;-73
2021/06/01 19:53:14;;;;;;;;;;;;;;;14.62;57.34;102795.19;6391805;27;19915;-73
2021/06/01 19:56:18;;;;;;;;;;;;;;;14.65;57.69;102805.81;6391733;27;19919;-72
2021/06/01 19:59:23;;;;;;;;;;;;;;;14.58;57.72;102805.75;6392723;27;19922;-72
2021/06/01 20:02:29;;;;;;;;;;;;;;;14.63;57.74;102808.75;6373792;27;20199;-73
2021/06/01 20:05:32;;;;;;;;;;;;;;;14.51;58.26;102813.03;6391287;27;19915;-72
2021/06/01 20:08:36;;;;;;;;;;;;;;;14.43;58.79;102807.72;6392493;27;19919;-72
2021/06/01 20:11:41;;;;;;;;;;;;;;;14.44;59.42;102817.63;6374089;27;19919;-72
2021/06/01 20:14:46;;;;;;;;;;;;;;;14.37;59.65;102813.97;6392808;27;19915;-72
2021/06/01 20:17:49;;;;;;;;;;;;;;;14.37;59.89;102801.09;6392314;27;19991;-72
2021/06/01 20:20:54;;;;;;;;;;;;;;;14.34;60.21;102819.84;6392387;27;19915;-72
2021/06/01 20:24:01;;;;;;;;;;;;;;;14.25;59.92;102821.00;6392441;27;19922;-72
2021/06/01 20:27:07;;;;;;;;;;;;;;;14.28;59.75;102826.06;6391454;27;19919;-72
2021/06/01 20:30:15;;;;;;;;;;;;;;;14.11;60.44;102824.59;6391744;27;19919;-72
2021/06/01 20:33:20;;;;;;;;;;;;;;;14.09;60.52;102826.69;6392132;27;19920;-71
2021/06/01 20:36:23;;;;;;;;;;;;;;;14.07;60.54;102823.31;6391778;27;19915;-71
2021/06/01 20:39:29;;;;;;;;;;;;;;;14.02;60.59;102820.28;6389935;27;20140;-72
2021/06/01 20:42:33;;;;;;;;;;;;;;;13.99;60.05;102823.41;6371815;27;19919;-71
2021/06/01 20:45:40;;;;;;;;;;;;;;;14.12;59.73;102824.41;6390404;27;20132;-72
2021/06/01 20:48:46;;;;;;;;;;;;;;;14.09;60.13;102829.44;6390171;27;20110;-71
2021/06/01 20:51:49;;;;;;;;;;;;;;;14.05;60.47;102841.81;6391773;27;19994;-72
2021/06/01 20:54:52;;;;;;;;;;;;;;;13.99;60.28;102837.13;6391839;27;19919;-72
2021/06/01 20:57:56;;;;;;;;;;;;;;;13.85;61.37;102830.59;6391381;27;19915;-71
2021/06/01 21:01:02;;;;;;;;;;;;;;;13.86;61.25;102839.69;6390179;27;19938;-72
2021/06/01 21:04:06;;;;;;;;;;;;;;;13.82;61.71;102853.78;6390686;27;19915;-72
2021/06/01 21:07:10;;;;;;;;;;;;;;;13.91;60.71;102845.47;6390121;27;20096;-72
2021/06/01 21:10:14;;;;;;;;;;;;;;;13.89;61.08;102847.53;6391121;27;19915;-71
2021/06/01 21:13:18;;;;;;;;;;;;;;;13.80;61.11;102853.13;6390832;27;19935;-72
2021/06/01 21:16:23;;;;;;;;;;;;;;;13.75;61.13;102850.09;6391246;27;19960;-73
2021/06/01 21:19:27;;;;;;;;;;;;;;;13.66;60.88;102853.97;6391077;27;19915;-73
2021/06/01 21:22:30;;;;;;;;;;;;;;;13.71;61.33;102858.91;6391086;27;19974;-72
2021/06/01 21:25:33;;;;;;;;;;;;;;;13.55;61.59;102861.81;6371543;27;19916;-72
2021/06/01 21:28:37;;;;;;;;;;;;;;;13.50;61.92;102864.28;6390970;27;19951;-72
2021/06/01 21:31:45;;;;;;;;;;;;;;;13.41;62.15;102863.50;6390912;27;20031;-72
2021/06/01 21:34:50;;;;;;;;;;;;;;;13.48;61.43;102861.72;6389472;27;20201;-71
2021/06/01 21:37:55;;;;;;;;;;;;;;;13.33;62.62;102857.28;6390297;27;19974;-71
2021/06/01 21:41:00;;;;;;;2.63;2.53;;;;;;;13.49;61.94;102863.44;6370949;27;20629;-71
2021/06/01 21:44:04;;;;;;;2.70;2.40;;;;;;;13.56;61.72;102869.84;6371200;27;20236;-72
2021/06/01 21:47:13;;;;;;;2.63;2.63;;;;;;;13.47;61.97;102860.03;6388667;27;20182;-73
2021/06/01 21:50:21;;;;;;;3.00;2.80;;;;;;;13.47;62.05;102871.00;6388724;27;20224;-73
2021/06/01 21:53:25;;;;;;;2.75;2.55;;;;;;;13.45;62.10;102873.06;6389606;27;20203;-73
2021/06/01 21:56:31;;;;;;;3.15;3.03;;;;;;;13.48;62.40;102878.16;6389528;27;20181;-73
2021/06/01 21:59:36;;;;;;;2.97;2.97;;;;;;;13.24;62.22;102845.53;6389407;27;20384;-73
2021/06/01 22:02:41;;;;;;;2.80;2.70;;;;;;;13.38;62.06;102879.50;6388190;27;20469;-73
2021/06/01 22:05:46;;;;;;;4.38;3.08;;;;;;;13.38;62.30;102885.81;6388650;27;20304;-71
2021/06/01 22:08:50;;;;;;;3.33;3.15;;;;;;;13.50;62.11;102887.06;6389036;27;20189;-71
2021/06/01 22:11:54;;;;;;;3.47;3.10;;;;;;;13.46;62.33;102888.47;6388742;27;20185;-71
2021/06/01 22:14:59;;;;;;;2.97;2.92;;;;;;;13.41;62.28;102887.31;6389295;27;20185;-71
2021/06/01 22:18:09;;;;;;;3.05;2.80;;;;;;;13.28;62.59;102882.47;6389111;27;20189;-71
2021/06/01 22:21:16;;;;;;;3.17;2.95;;;;;;;13.21;62.87;102881.53;6389089;27;20209;-71
2021/06/01 22:24:21;;;;;;;2.83;2.72;;;;;;;13.14;62.96;102891.53;6388762;27;20182;-71
2021/06/01 22:27:25;;;;;;;3.03;2.90;;;;;;;13.15;63.34;102895.94;6388665;27;20260;-71
2021/06/01 22:30:30;;;;;;;2.90;2.80;;;;;;;13.02;63.94;102895.69;6369849;27;20239;-71
2021/06/01 22:33:37;;;;;;;3.67;2.70;;;;;;;12.91;63.53;102868.75;6388883;27;20181;-71
2021/06/01 22:36:41;;;;;;;2.80;2.67;;;;;;;12.90;64.29;102888.94;6387520;27;20529;-71
2021/06/01 22:39:44;;;;;;;2.80;2.60;;;;;;;12.99;64.44;102893.34;6388359;27;20209;-71
2021/06/01 22:42:49;;;;;;;3.25;2.90;;;;;;;12.97;64.93;102900.88;6388746;27;20205;-72
2021/06/01 22:45:54;;;;;;;2.70;2.60;;;;;;;12.90;65.08;102899.91;6388650;27;20182;-71
2021/06/01 22:49:01;;;;;;;2.90;2.80;;;;;;;12.80;65.46;102904.75;6387347;27;20181;-72
2021/06/01 22:52:05;;;;;;;2.65;2.65;;;;;;;12.85;65.37;102905.94;6387288;27;20450;-72
2021/06/01 22:55:10;;;;;;;2.88;2.75;;;;;;;12.89;65.36;102898.22;6388570;27;20189;-71
2021/06/01 22:58:16;;;;;;;2.80;2.60;;;;;;;12.72;66.15;102907.56;6369636;27;20197;-71
2021/06/01 23:01:25;;;;;;;2.75;2.65;;;;;;;12.86;66.01;102906.78;6386903;27;20212;-71
2021/06/01 23:04:32;;;;;;;3.55;3.25;;;;;;;12.73;66.32;102914.75;6386845;27;20181;-71
2021/06/01 23:07:38;;;;;;;3.00;2.80;;;;;;;12.78;66.44;102906.84;6361424;28;20189;-72
2021/06/01 23:10:43;;;;;;;2.90;2.80;;;;;;;12.75;66.77;102923.63;6362538;28;20193;-72
2021/06/01 23:13:54;;;;;;;2.92;2.75;;;;;;;12.67;67.26;102926.41;6362258;28;20182;-72
2021/06/01 23:17:02;;;;;;;2.97;2.78;;;;;;;12.77;67.05;102933.38;6361353;28;20378;-71
2021/06/01 23:20:11;;;;;;;3.17;3.10;;;;;;;12.78;66.87;102924.13;6361621;28;20213;-72
2021/06/01 23:23:15;;;;;;;2.80;2.70;;;;;;;12.85;66.60;102929.72;6362294;28;20190;-71
2021/06/01 23:26:19;;;;;;;6.38;2.78;;;;;;;12.58;67.54;102910.03;6362691;28;20214;-73
2021/06/01 23:29:23;;;;;;;2.97;2.88;;;;;;;12.85;66.75;102936.06;6362243;28;20182;-72
2021/06/01 23:32:27;;;;;;;2.88;2.65;;;;;;;12.87;67.21;102938.63;6362498;28;20189;-72
2021/06/01 23:35:32;;;;;;;2.75;2.63;;;;;;;12.75;67.73;102929.13;6361933;28;20286;-72
2021/06/01 23:38:36;;;;;;;;;;;;;;;12.81;67.49;102933.88;6362790;28;20182;-71
2021/06/01 23:41:41;;;;;;;;;;;;;;;12.84;67.21;102939.00;6362475;28;19920;-72
2021/06/01 23:44:45;;;;;;;;;;;;;;;12.79;67.57;102939.53;6362633;28;19922;-72
2021/06/01 23:51:10;;;;;;;;;;;;;;;12.66;68.17;102941.16;6361415;28;20162;-71
2021/06/01 23:54:13;;;;;;;;;;;;;;;12.78;67.86;102945.19;6362495;28;19958;-71
2021/06/01 23:57:17;;;;;;;2.90;2.80;;;;;;;12.78;68.25;102934.25;6361310;28;20202;-72
